Terminal Aerodrome Forecast
Issued by NWS

Home | Current Version | Previous Version | Text Only | Print | Product List | Glossary On
Versions: 1 2 3 4 5 6 7 8 9 10 11 12
000
FTUS42 KTBW 271122
TAFPIE
TAF
KPIE 271122Z 2712/2812 08005KT P6SM FEW100 FEW250
     FM271400 11008KT P6SM FEW030 FEW250
     FM271800 11008KT P6SM VCTS SCT035CB SCT150
     FM272100 29007KT P6SM VCTS SCT050CB SCT150
     FM280200 VRB05KT P6SM FEW050 SCT250=

USA.gov is the U.S. government's official web portal to all federal, state and local government web resources and services.